createdAt,value
2023-03-17T06:12:20.391Z,56.50
2023-03-17T06:14:24.137Z,55.75
2023-03-17T06:16:30.777Z,55.73
2023-03-17T06:18:33.758Z,55.28
2023-03-17T06:20:37.192Z,55.17
2023-03-17T06:22:51.646Z,55.17
2023-03-17T06:25:03.354Z,54.92
2023-03-17T06:27:06.251Z,54.58
2023-03-17T06:29:12.147Z,54.55
2023-03-17T06:31:14.981Z,54.30
2023-03-17T06:33:19.081Z,54.58
2023-03-17T06:35:22.802Z,54.34
2023-03-17T06:37:26.492Z,54.30
2023-03-17T06:39:29.484Z,54.17
2023-03-17T06:41:32.328Z,54.30
2023-03-17T06:43:35.216Z,54.17
2023-03-17T06:45:39.603Z,53.85
2023-03-17T06:47:42.811Z,54.30
2023-03-17T06:49:45.725Z,54.06
2023-03-17T06:51:48.547Z,53.98
2023-03-17T06:53:51.941Z,53.80
2023-03-17T06:55:54.928Z,53.78
2023-03-17T06:57:58.908Z,53.87
2023-03-17T07:00:02.081Z,54.02
2023-03-17T07:02:06.323Z,53.68
2023-03-17T07:04:09.394Z,53.67
2023-03-17T07:06:12.322Z,53.45
2023-03-17T07:08:15.150Z,53.73
2023-03-17T07:10:18.869Z,53.58
2023-03-17T07:12:21.995Z,53.39
2023-03-17T07:14:25.662Z,53.46
2023-03-17T07:16:28.810Z,53.54
2023-03-17T07:18:33.749Z,53.38
2023-03-17T07:20:36.971Z,53.25
2023-03-17T07:22:39.840Z,53.14
2023-03-17T07:24:43.210Z,53.56
2023-03-17T07:26:46.185Z,53.42
2023-03-17T07:28:49.052Z,53.13
2023-03-17T07:30:52.623Z,53.09
2023-03-17T07:32:55.568Z,53.29
2023-03-17T07:34:59.907Z,52.93
2023-03-17T07:37:02.716Z,52.78
2023-03-17T07:39:05.506Z,52.85
2023-03-17T07:41:10.434Z,53.14
2023-03-17T07:43:15.376Z,53.22
2023-03-17T07:45:18.458Z,53.45
2023-03-17T07:47:21.336Z,52.81
2023-03-17T07:49:40.073Z,53.11
2023-03-17T07:51:45.281Z,52.90
2023-03-17T07:53:49.993Z,53.09
2023-03-17T07:55:52.817Z,52.88
2023-03-17T07:57:55.770Z,53.07
2023-03-17T07:59:58.686Z,52.75
2023-03-17T08:02:01.742Z,52.53
2023-03-17T08:04:05.518Z,52.87
2023-03-17T08:06:09.198Z,52.52
2023-03-17T08:08:13.969Z,52.46
2023-03-17T08:10:17.069Z,52.85
2023-03-17T08:12:20.064Z,52.66
2023-03-17T08:14:22.870Z,52.80
2023-03-17T08:16:26.176Z,52.82
2023-03-17T08:18:29.058Z,52.33
2023-03-17T08:20:33.369Z,52.43
2023-03-17T08:22:36.894Z,52.53
2023-03-17T08:24:43.019Z,52.33
2023-03-17T08:26:49.167Z,52.53
2023-03-17T08:28:52.167Z,52.42
2023-03-17T08:30:55.860Z,52.78
2023-03-17T08:32:59.096Z,52.78
2023-03-17T08:35:02.608Z,52.71
2023-03-17T08:37:05.549Z,52.69
2023-03-17T08:39:10.430Z,52.73
2023-03-17T08:41:18.239Z,52.29
2023-03-17T08:43:21.942Z,52.58
2023-03-17T08:45:24.874Z,52.54
2023-03-17T08:47:28.319Z,52.24
2023-03-17T08:49:34.414Z,52.30
2023-03-17T08:51:39.317Z,52.31
2023-03-17T08:53:43.123Z,52.17
2023-03-17T08:55:46.055Z,52.26
2023-03-17T08:57:50.286Z,52.15
2023-03-17T08:59:53.653Z,52.08
2023-03-17T09:01:57.889Z,52.17
2023-03-17T09:04:01.031Z,52.00
2023-03-17T09:06:07.461Z,51.97
2023-03-17T09:08:13.579Z,52.00
2023-03-17T09:10:16.878Z,51.94
2023-03-17T09:12:19.844Z,51.90
2023-03-17T09:14:24.879Z,51.66
2023-03-17T09:16:28.806Z,51.42
2023-03-17T09:18:33.068Z,51.45
2023-03-17T09:20:36.251Z,51.39
2023-03-17T09:22:39.198Z,51.41
2023-03-17T09:24:41.982Z,51.58
2023-03-17T09:26:45.384Z,51.57
2023-03-17T09:28:48.668Z,51.26
2023-03-17T09:30:53.119Z,51.30
2023-03-17T09:32:55.998Z,51.50
2023-03-17T09:34:59.958Z,51.49
2023-03-17T09:37:02.944Z,51.21
2023-03-17T09:39:06.132Z,51.31
2023-03-17T09:41:40.484Z,51.20
2023-03-17T09:43:53.641Z,51.09
2023-03-17T09:46:00.946Z,50.85
2023-03-17T09:48:26.132Z,51.13
2023-03-17T09:50:33.781Z,50.95
2023-03-17T09:52:37.140Z,51.11
2023-03-17T09:54:40.459Z,50.86
2023-03-17T09:56:49.335Z,50.56
2023-03-17T09:59:01.650Z,50.79
2023-03-17T10:01:06.658Z,50.83
2023-03-17T10:03:11.911Z,50.89
2023-03-17T10:05:20.638Z,50.68
2023-03-17T10:07:29.085Z,50.59
2023-03-17T10:09:40.098Z,50.58
2023-03-17T10:11:44.735Z,50.53
2023-03-17T10:13:55.854Z,50.47
2023-03-17T10:16:04.428Z,50.83
2023-03-17T10:18:15.287Z,50.53
2023-03-17T10:20:22.667Z,50.49
2023-03-17T10:22:31.421Z,50.28
2023-03-17T10:24:35.821Z,50.27
2023-03-17T10:26:43.094Z,50.04
2023-03-17T10:28:46.222Z,49.89
2023-03-17T10:30:49.353Z,50.04
2023-03-17T10:32:54.604Z,50.04
2023-03-17T10:34:58.873Z,49.76
2023-03-17T10:37:05.671Z,49.91
2023-03-17T10:39:12.729Z,49.98
2023-03-17T10:41:16.895Z,49.61
2023-03-17T10:43:22.011Z,49.38
2023-03-17T10:45:29.115Z,49.43
2023-03-17T10:47:33.338Z,49.64
2023-03-17T10:49:37.879Z,49.53
2023-03-17T10:51:46.265Z,49.61
2023-03-17T10:53:54.425Z,49.08
2023-03-17T10:56:02.341Z,49.55
2023-03-17T10:58:07.814Z,49.33
2023-03-17T11:00:18.033Z,49.36
2023-03-17T11:02:28.027Z,49.44
2023-03-17T11:04:34.287Z,49.32
2023-03-17T11:06:40.249Z,49.33
2023-03-17T11:08:48.831Z,49.25
2023-03-17T11:10:56.699Z,49.16
2023-03-17T11:13:01.874Z,48.89
2023-03-17T11:15:07.179Z,48.91
2023-03-17T11:17:18.823Z,48.86
2023-03-17T11:19:28.589Z,48.93
2023-03-17T11:21:33.886Z,48.78
2023-03-17T11:23:51.184Z,48.66
2023-03-17T11:26:06.665Z,48.64
2023-03-17T11:28:19.786Z,48.12
2023-03-17T11:30:32.754Z,48.33
2023-03-17T11:32:41.453Z,47.87
2023-03-17T11:35:00.090Z,47.80
2023-03-17T11:37:10.106Z,48.07
2023-03-17T11:39:18.072Z,47.80
2023-03-17T11:41:35.673Z,47.52
2023-03-17T11:43:49.742Z,47.46
2023-03-17T11:45:57.249Z,47.52
2023-03-17T11:48:24.286Z,47.41
2023-03-17T11:50:34.795Z,47.44
2023-03-17T11:52:44.691Z,47.65
2023-03-17T11:54:59.672Z,47.67
2023-03-17T11:57:10.661Z,47.57
2023-03-17T11:59:21.738Z,47.54
2023-03-17T12:01:28.365Z,47.88
2023-03-17T12:03:38.852Z,47.44
2023-03-17T12:05:43.177Z,47.73
2023-03-17T12:07:50.031Z,47.34
2023-03-17T12:10:07.557Z,47.32
2023-03-17T12:12:15.857Z,47.23
2023-03-17T12:14:28.042Z,47.42
2023-03-17T12:16:37.325Z,46.90
2023-03-17T12:18:46.197Z,47.01
2023-03-17T12:20:54.148Z,47.02
2023-03-17T12:23:02.461Z,47.27
2023-03-17T12:25:14.492Z,46.98
2023-03-17T12:27:23.665Z,47.24
2023-03-17T12:29:31.029Z,46.86
2023-03-17T12:31:37.156Z,47.00
2023-03-17T12:33:48.456Z,47.02
2023-03-17T12:35:52.259Z,46.65
2023-03-17T12:37:56.465Z,46.83
2023-03-17T12:40:06.722Z,46.81
2023-03-17T12:42:33.676Z,46.35
2023-03-17T12:45:09.229Z,46.33
2023-03-17T12:47:37.050Z,46.27
2023-03-17T12:50:21.311Z,45.67
2023-03-17T12:52:37.615Z,45.68
2023-03-17T12:54:46.257Z,45.47
2023-03-17T12:56:50.806Z,45.36
2023-03-17T12:59:01.011Z,45.33
2023-03-17T13:01:10.867Z,45.46
2023-03-17T13:03:24.031Z,45.10
2023-03-17T13:05:34.000Z,44.84
2023-03-17T13:07:42.283Z,44.69
2023-03-17T13:09:48.545Z,44.83
2023-03-17T13:11:51.613Z,44.63
2023-03-17T13:14:15.254Z,44.65
2023-03-17T13:16:32.271Z,44.71
2023-03-17T13:18:53.659Z,44.50
2023-03-17T13:21:12.841Z,44.29
2023-03-17T13:23:18.578Z,44.22
2023-03-17T13:25:33.418Z,44.36
2023-03-17T13:27:46.057Z,44.25
2023-03-17T13:29:50.185Z,44.01
2023-03-17T13:31:53.144Z,43.79
2023-03-17T13:33:57.639Z,43.82
2023-03-17T13:36:10.836Z,43.79
2023-03-17T13:38:33.921Z,43.74
2023-03-17T13:40:40.521Z,43.89
2023-03-17T13:43:02.841Z,43.95
2023-03-17T13:45:16.844Z,43.69
2023-03-17T13:47:30.011Z,43.97
2023-03-17T13:49:36.656Z,43.74
2023-03-17T13:51:43.914Z,43.78
2023-03-17T13:53:54.617Z,43.67
2023-03-17T13:56:14.417Z,43.63
2023-03-17T13:58:34.454Z,43.84
2023-03-17T14:00:41.469Z,43.60
2023-03-17T14:02:45.976Z,43.84
2023-03-17T14:04:56.028Z,43.46
2023-03-17T14:07:05.745Z,43.48
2023-03-17T14:09:24.700Z,43.42
2023-03-17T14:11:33.389Z,43.74
2023-03-17T14:13:50.569Z,43.54
2023-03-17T14:16:03.735Z,43.54
2023-03-17T14:18:16.142Z,43.64
2023-03-17T14:20:27.177Z,43.84
2023-03-17T14:22:30.461Z,43.88
2023-03-17T14:24:34.887Z,43.83
2023-03-17T14:26:37.929Z,43.75
2023-03-17T14:28:40.936Z,43.81
2023-03-17T14:30:53.536Z,43.98
2023-03-17T14:33:04.411Z,43.86
2023-03-17T14:35:07.743Z,44.04
2023-03-17T14:37:12.914Z,43.76
2023-03-17T14:39:24.595Z,43.63
2023-03-17T14:41:29.705Z,43.69
2023-03-17T14:43:37.299Z,43.64
2023-03-17T14:45:50.298Z,43.55
2023-03-17T14:47:53.392Z,43.29
2023-03-17T14:49:57.534Z,43.31
2023-03-17T14:52:02.476Z,43.42
2023-03-17T14:54:12.657Z,43.17
2023-03-17T14:56:15.774Z,43.32
2023-03-17T14:58:23.068Z,43.41
2023-03-17T15:00:34.892Z,42.93
2023-03-17T15:02:38.264Z,43.00
2023-03-17T15:04:52.729Z,42.83
2023-03-17T15:06:58.526Z,42.93
2023-03-17T15:09:04.548Z,43.03
2023-03-17T15:11:08.304Z,42.91
2023-03-17T15:13:13.681Z,42.91
2023-03-17T15:15:23.994Z,42.63
2023-03-17T15:17:31.898Z,42.44
2023-03-17T15:19:40.485Z,42.56
2023-03-17T15:21:44.141Z,42.40
2023-03-17T15:23:48.761Z,42.64
2023-03-17T15:25:55.808Z,42.62
2023-03-17T15:27:58.937Z,42.37
2023-03-17T15:30:02.514Z,42.29
2023-03-17T15:32:13.611Z,41.95
2023-03-17T15:34:16.413Z,42.24
2023-03-17T15:36:31.874Z,42.32
2023-03-17T15:38:38.830Z,42.20
2023-03-17T15:40:43.036Z,42.28
2023-03-17T15:42:46.452Z,42.12
2023-03-17T15:44:49.300Z,42.28
2023-03-17T15:46:52.130Z,42.16
2023-03-17T15:48:54.872Z,42.32
2023-03-17T15:50:59.830Z,42.20
2023-03-17T15:53:02.602Z,42.14
2023-03-17T15:55:15.084Z,42.19
2023-03-17T15:57:19.745Z,42.43
2023-03-17T15:59:22.472Z,42.38
2023-03-17T16:01:27.852Z,42.44
2023-03-17T16:03:33.708Z,42.26
2023-03-17T16:05:37.073Z,42.33
2023-03-17T16:07:39.944Z,42.21
2023-03-17T16:09:42.788Z,42.13
2023-03-17T16:11:45.710Z,42.27
2023-03-17T16:13:49.874Z,42.24
2023-03-17T16:15:56.560Z,42.29
2023-03-17T16:18:01.917Z,42.26
2023-03-17T16:20:05.874Z,42.19
2023-03-17T16:22:27.893Z,42.25
2023-03-17T16:24:31.338Z,42.20
2023-03-17T16:26:34.183Z,42.11
2023-03-17T16:28:36.971Z,42.17
2023-03-17T16:30:41.523Z,42.30
2023-03-17T16:32:44.606Z,42.32
2023-03-17T16:34:47.557Z,42.10
2023-03-17T16:36:51.468Z,42.26
2023-03-17T16:38:54.525Z,42.38
2023-03-17T16:40:59.659Z,42.23
2023-03-17T16:43:12.934Z,42.03
2023-03-17T16:45:23.163Z,42.27
2023-03-17T16:47:27.472Z,42.31
2023-03-17T16:49:30.290Z,42.32
2023-03-17T16:51:33.060Z,42.24
2023-03-17T16:53:35.921Z,42.08
2023-03-17T16:55:40.184Z,42.04
2023-03-17T16:57:44.090Z,42.13
2023-03-17T16:59:46.954Z,42.16
2023-03-17T17:01:49.985Z,42.10
2023-03-17T17:03:54.562Z,42.31
2023-03-17T17:05:57.453Z,42.06
2023-03-17T17:08:00.514Z,42.17
2023-03-17T17:10:03.423Z,42.13
2023-03-17T17:12:07.201Z,42.31
2023-03-17T17:14:10.181Z,42.07
2023-03-17T17:16:22.049Z,42.27
2023-03-17T17:18:25.466Z,42.00
2023-03-17T17:20:34.122Z,42.20
2023-03-17T17:22:36.972Z,42.23
2023-03-17T17:24:39.677Z,42.09
2023-03-17T17:26:42.647Z,41.94
2023-03-17T17:28:45.519Z,42.11
2023-03-17T17:30:48.332Z,42.30
2023-03-17T17:32:51.272Z,42.27
2023-03-17T17:34:54.187Z,42.18
2023-03-17T17:36:58.667Z,42.49
2023-03-17T17:39:01.560Z,42.33
2023-03-17T17:41:05.834Z,42.32
2023-03-17T17:43:10.112Z,42.49
2023-03-17T17:45:13.663Z,42.65
2023-03-17T17:47:16.864Z,42.52
2023-03-17T17:49:19.714Z,42.42
2023-03-17T17:51:22.446Z,42.45
2023-03-17T17:53:26.821Z,42.52
2023-03-17T17:55:29.648Z,42.44
2023-03-17T17:57:32.387Z,42.40
2023-03-17T17:59:35.261Z,42.69
2023-03-17T18:01:38.825Z,42.60
2023-03-17T18:03:43.035Z,42.68
2023-03-17T18:05:45.960Z,42.45
2023-03-17T18:07:48.801Z,42.42
2023-03-17T18:09:53.020Z,42.59
2023-03-17T18:11:55.917Z,42.63
2023-03-17T18:13:59.114Z,42.62
2023-03-17T18:16:04.396Z,42.42
2023-03-17T18:18:10.257Z,42.72
2023-03-17T18:20:15.455Z,42.75
2023-03-17T18:22:22.347Z,42.40
2023-03-17T18:24:25.397Z,42.67
2023-03-17T18:26:33.145Z,42.73
2023-03-17T18:28:36.624Z,42.74
2023-03-17T18:30:40.015Z,42.52
2023-03-17T18:32:45.441Z,42.58
2023-03-17T18:34:49.405Z,42.54
2023-03-17T18:36:53.155Z,42.57
2023-03-17T18:38:55.999Z,42.56
2023-03-17T18:40:59.167Z,42.49
2023-03-17T18:43:03.420Z,42.55
2023-03-17T18:45:08.505Z,42.73
2023-03-17T18:47:11.512Z,42.76
2023-03-17T18:49:14.477Z,42.78
2023-03-17T18:51:20.646Z,42.61
2023-03-17T18:53:23.703Z,42.83
2023-03-17T18:55:26.628Z,42.78
2023-03-17T18:57:29.520Z,42.92
2023-03-17T18:59:35.894Z,42.96
2023-03-17T19:01:38.905Z,42.75
2023-03-17T19:03:41.829Z,42.86
2023-03-17T19:05:44.635Z,42.58
2023-03-17T19:07:47.413Z,42.73
2023-03-17T19:09:50.996Z,42.74
2023-03-17T19:11:54.060Z,42.75
2023-03-17T19:13:58.200Z,42.69
2023-03-17T19:16:02.839Z,42.59
2023-03-17T19:18:08.594Z,42.79
2023-03-17T19:20:13.335Z,42.60
2023-03-17T19:22:16.381Z,42.65
2023-03-17T19:24:22.510Z,42.94
2023-03-17T19:26:25.404Z,42.58
2023-03-17T19:28:28.530Z,42.81
2023-03-17T19:30:31.919Z,42.48
2023-03-17T19:32:36.328Z,42.73
2023-03-17T19:34:39.445Z,42.49
2023-03-17T19:36:46.084Z,42.79
2023-03-17T19:38:54.393Z,42.76
2023-03-17T19:40:59.176Z,42.68
2023-03-17T19:43:02.038Z,42.68
2023-03-17T19:45:06.106Z,42.77
2023-03-17T19:47:10.261Z,42.66
2023-03-17T19:49:14.956Z,42.65
2023-03-17T19:51:21.440Z,42.52
2023-03-17T19:53:24.355Z,42.63
2023-03-17T19:55:27.336Z,42.55
2023-03-17T19:57:31.389Z,42.41
2023-03-17T19:59:35.900Z,42.56
2023-03-17T20:01:39.054Z,42.46
2023-03-17T20:03:42.491Z,42.49
2023-03-17T20:05:47.596Z,42.47
2023-03-17T20:07:50.470Z,42.64
2023-03-17T20:09:54.009Z,42.68
2023-03-17T20:11:57.082Z,42.46
2023-03-17T20:14:00.218Z,42.58
2023-03-17T20:16:03.566Z,42.49
2023-03-17T20:18:06.896Z,42.29
2023-03-17T20:20:11.757Z,42.51
2023-03-17T20:22:15.979Z,42.36
2023-03-17T20:24:19.027Z,42.57
2023-03-17T20:26:21.900Z,42.59
2023-03-17T20:28:25.199Z,42.39
2023-03-17T20:30:28.191Z,42.69
2023-03-17T20:32:31.099Z,42.48
2023-03-17T20:34:34.611Z,42.36
2023-03-17T20:36:42.084Z,42.65
2023-03-17T20:38:46.667Z,42.49
2023-03-17T20:40:49.504Z,42.60
2023-03-17T20:42:52.501Z,42.85
2023-03-17T20:44:56.444Z,42.52
2023-03-17T20:46:59.291Z,42.58
2023-03-17T20:49:03.038Z,42.90
2023-03-17T20:51:06.424Z,42.96
2023-03-17T20:53:09.285Z,43.02
2023-03-17T20:55:14.471Z,42.72
2023-03-17T20:57:18.963Z,42.68
2023-03-17T20:59:41.858Z,42.58
2023-03-17T21:02:04.870Z,42.87
2023-03-17T21:04:09.975Z,42.77
2023-03-17T21:06:34.163Z,42.61
2023-03-17T21:08:56.980Z,42.67
2023-03-17T21:11:23.162Z,42.91
2023-03-17T21:13:26.185Z,42.61
2023-03-17T21:15:49.778Z,42.66
2023-03-17T21:17:53.637Z,42.65
2023-03-17T21:19:56.929Z,42.64
2023-03-17T21:21:59.830Z,42.63
2023-03-17T21:24:03.037Z,42.65
2023-03-17T21:26:06.329Z,43.10
2023-03-17T21:28:11.203Z,43.04
2023-03-17T21:30:15.730Z,42.92
2023-03-17T21:32:18.553Z,42.97
2023-03-17T21:34:21.442Z,43.35
2023-03-17T21:36:24.237Z,43.49
2023-03-17T21:38:28.404Z,43.41
2023-03-17T21:40:31.581Z,43.65
2023-03-17T21:42:34.584Z,43.75
2023-03-17T21:44:38.924Z,43.50
2023-03-17T21:46:41.693Z,43.81
2023-03-17T21:48:44.787Z,43.75
2023-03-17T21:50:49.071Z,43.77
2023-03-17T21:52:51.864Z,43.90
2023-03-17T21:54:54.719Z,43.76
2023-03-17T21:56:58.262Z,43.77
2023-03-17T21:59:03.044Z,43.95
2023-03-17T22:01:09.036Z,43.79
2023-03-17T22:03:11.967Z,43.75
2023-03-17T22:05:14.849Z,43.83
2023-03-17T22:07:17.957Z,44.19
2023-03-17T22:09:21.790Z,43.97
2023-03-17T22:11:24.838Z,43.99
2023-03-17T22:13:27.645Z,43.90
2023-03-17T22:15:30.529Z,43.88
2023-03-17T22:17:35.033Z,43.84
2023-03-17T22:19:40.026Z,43.90
2023-03-17T22:21:43.034Z,43.74
2023-03-17T22:23:46.304Z,43.70
2023-03-17T22:25:49.155Z,43.51
2023-03-17T22:27:53.586Z,43.54
2023-03-17T22:29:56.565Z,43.59
2023-03-17T22:31:59.968Z,43.88
